^^

STATION HISTORICAL DATA

Daily Summary for February 22, 2018 Units:  English    Metric   Both
« Previous Day
Next Day »
Daily Weekly Monthly Yearly Custom
  Current: High: Low: Average:
Temperature: 27.0 °F 27.0 °F 25.9 °F 26.2 °F
Dew Point: 21.9 °F 21.9 °F 20.3 °F 21.1 °F
Humidity: 81 % 81 % 79 % 80 %
Wind Speed: 12.0 mph 16.1 mph 8.0 mph 11.5 mph
Wind Gust: 12.0 mph 16.1 mph - -
Wind:NE - - NE
Pressure: 30.57 in 30.62 in 30.55 in -
Precipitation: 0.00 in      
Historical Graphs
 
 
Tabular Data for February 22, 2018
Time Temperature Dew Point Pressure Wind Wind Speed Wind Gust Humidity Rainfall Rate (Hourly) solar Conditions
00:04 26.2 °F 20.6 °F 30.61 in NE 9.2 mph 9.2 mph 79 % 0.00 in 0.0 W/m2 CLR
00:09 26.2 °F 20.6 °F 30.61 in NE 11.5 mph 11.5 mph 79 % 0.00 in 0.0 W/m2 CLR
00:14 26.1 °F 20.5 °F 30.61 in NE 10.4 mph 10.4 mph 79 % 0.00 in 0.0 W/m2 CLR
00:19 26.1 °F 20.5 °F 30.61 in NE 9.2 mph 9.2 mph 79 % 0.00 in 0.0 W/m2 CLR
00:24 26.1 °F 20.5 °F 30.61 in NE 9.2 mph 9.2 mph 79 % 0.00 in 0.0 W/m2 CLR
00:29 26.1 °F 20.5 °F 30.61 in NE 9.2 mph 9.2 mph 79 % 0.00 in 0.0 W/m2 CLR
00:35 26.1 °F 20.5 °F 30.61 in NE 11.5 mph 11.5 mph 79 % 0.00 in 0.0 W/m2 CLR
00:40 26.0 °F 20.4 °F 30.61 in ENE 10.4 mph 10.4 mph 79 % 0.00 in 0.0 W/m2 CLR
00:41 26.0 °F 20.4 °F 30.61 in NE 10.4 mph 10.4 mph 79 % 0.00 in 0.0 W/m2 CLR
00:45 26.0 °F 20.4 °F 30.61 in ENE 10.4 mph 10.4 mph 79 % 0.00 in 0.0 W/m2 CLR
00:50 26.0 °F 20.4 °F 30.60 in ENE 11.5 mph 11.5 mph 79 % 0.00 in 0.0 W/m2 CLR
00:55 26.0 °F 20.7 °F 30.61 in ENE 12.7 mph 12.7 mph 80 % 0.00 in 0.0 W/m2 CLR
01:00 26.0 °F 20.4 °F 30.61 in ENE 11.5 mph 11.5 mph 79 % 0.00 in 0.0 W/m2 CLR
01:05 25.9 °F 20.3 °F 30.61 in ENE 11.5 mph 11.5 mph 79 % 0.00 in 0.0 W/m2 CLR
01:10 25.9 °F 20.6 °F 30.61 in ENE 9.2 mph 9.2 mph 80 % 0.00 in 0.0 W/m2 CLR
01:15 25.9 °F 20.6 °F 30.62 in ENE 11.5 mph 11.5 mph 80 % 0.00 in 0.0 W/m2 CLR
01:20 25.9 °F 20.6 °F 30.62 in ENE 16.0 mph 16.0 mph 80 % 0.00 in 0.0 W/m2 CLR
01:25 26.0 °F 20.7 °F 30.62 in ENE 8.1 mph 8.1 mph 80 % 0.00 in 0.0 W/m2 CLR
01:31 25.9 °F 20.9 °F 30.61 in ENE 8.0 mph 8.0 mph 81 % 0.00 in 0.0 W/m2 CLR
01:36 26.0 °F 21.0 °F 30.61 in ENE 11.5 mph 11.5 mph 81 % 0.00 in 0.0 W/m2 CLR
01:41 26.0 °F 21.0 °F 30.62 in ENE 10.4 mph 10.4 mph 81 % 0.00 in 0.0 W/m2 CLR
01:46 26.0 °F 21.0 °F 30.60 in NE 12.0 mph 12.0 mph 81 % 0.00 in 0.0 W/m2 CLR
01:51 26.0 °F 21.0 °F 30.60 in NE 12.7 mph 12.7 mph 81 % 0.00 in 0.0 W/m2 CLR
01:56 26.0 °F 21.0 °F 30.61 in NE 10.4 mph 10.4 mph 81 % 0.00 in 0.0 W/m2 CLR
02:01 26.0 °F 21.0 °F 30.60 in NE 11.5 mph 11.5 mph 81 % 0.00 in 0.0 W/m2 CLR
02:06 26.0 °F 21.0 °F 30.59 in NE 11.5 mph 11.5 mph 81 % 0.00 in 0.0 W/m2 CLR
02:11 26.1 °F 21.1 °F 30.59 in NE 12.7 mph 12.7 mph 81 % 0.00 in 0.0 W/m2 CLR
02:15 26.1 °F 21.1 °F 30.59 in NE 11.5 mph 11.5 mph 81 % 0.00 in 0.0 W/m2 CLR
02:16 26.1 °F 21.1 °F 30.59 in NE 14.0 mph 14.0 mph 81 % 0.00 in 0.0 W/m2 CLR
02:21 26.1 °F 21.1 °F 30.59 in NE 10.4 mph 10.4 mph 81 % 0.00 in 0.0 W/m2 CLR
02:26 26.1 °F 21.1 °F 30.59 in NE 11.5 mph 11.5 mph 81 % 0.00 in 0.0 W/m2 CLR
02:31 26.2 °F 21.2 °F 30.59 in NE 10.4 mph 10.4 mph 81 % 0.00 in 0.0 W/m2 CLR
02:36 26.2 °F 21.2 °F 30.59 in NE 12.7 mph 12.7 mph 81 % 0.00 in 0.0 W/m2 CLR
02:42 26.2 °F 21.2 °F 30.58 in NE 9.2 mph 9.2 mph 81 % 0.00 in 0.0 W/m2 CLR
02:47 26.2 °F 21.2 °F 30.57 in NE 10.4 mph 10.4 mph 81 % 0.00 in 0.0 W/m2 CLR
02:52 26.2 °F 21.2 °F 30.57 in ENE 12.7 mph 12.7 mph 81 % 0.00 in 0.0 W/m2 CLR
02:57 26.2 °F 21.2 °F 30.58 in ENE 11.5 mph 11.5 mph 81 % 0.00 in 0.0 W/m2 CLR
03:02 26.3 °F 21.3 °F 30.58 in ENE 12.0 mph 12.0 mph 81 % 0.00 in 0.0 W/m2 CLR
03:07 26.3 °F 21.3 °F 30.57 in NE 10.4 mph 10.4 mph 81 % 0.00 in 0.0 W/m2 CLR
03:12 26.3 °F 21.3 °F 30.57 in NE 12.7 mph 12.7 mph 81 % 0.00 in 0.0 W/m2 CLR
03:17 26.3 °F 21.3 °F 30.56 in NE 13.0 mph 13.0 mph 81 % 0.00 in 0.0 W/m2 CLR
03:23 26.3 °F 21.3 °F 30.56 in NE 11.5 mph 11.5 mph 81 % 0.00 in 0.0 W/m2 CLR
03:28 26.4 °F 21.4 °F 30.56 in NE 11.5 mph 11.5 mph 81 % 0.00 in 0.0 W/m2 CLR
03:33 26.4 °F 21.4 °F 30.55 in NE 15.0 mph 15.0 mph 81 % 0.00 in 0.0 W/m2 CLR
03:38 26.4 °F 21.4 °F 30.55 in NE 12.7 mph 12.7 mph 81 % 0.00 in 0.0 W/m2 CLR
03:43 26.4 °F 21.4 °F 30.56 in NE 12.7 mph 12.7 mph 81 % 0.00 in 0.0 W/m2 CLR
03:48 26.5 °F 21.5 °F 30.56 in NE 13.8 mph 13.8 mph 81 % 0.00 in 0.0 W/m2 CLR
03:53 26.5 °F 21.5 °F 30.55 in ENE 11.5 mph 11.5 mph 81 % 0.00 in 0.0 W/m2 CLR
03:58 26.6 °F 21.6 °F 30.56 in ENE 14.0 mph 14.0 mph 81 % 0.00 in 0.0 W/m2 CLR
04:03 26.6 °F 21.6 °F 30.55 in ENE 11.5 mph 11.5 mph 81 % 0.00 in 0.0 W/m2 CLR
04:08 26.6 °F 21.6 °F 30.55 in NE 13.8 mph 13.8 mph 81 % 0.00 in 0.0 W/m2 CLR
04:13 26.6 °F 21.6 °F 30.55 in ENE 16.1 mph 16.1 mph 81 % 0.00 in 0.0 W/m2 CLR
04:18 26.7 °F 21.7 °F 30.56 in ENE 10.4 mph 10.4 mph 81 % 0.00 in 0.0 W/m2 CLR
04:23 26.7 °F 21.7 °F 30.56 in ENE 11.5 mph 11.5 mph 81 % 0.00 in 0.0 W/m2 CLR
04:28 26.8 °F 21.8 °F 30.57 in ENE 9.2 mph 9.2 mph 81 % 0.00 in 0.0 W/m2 CLR
04:33 26.9 °F 21.8 °F 30.58 in ENE 9.2 mph 9.2 mph 81 % 0.00 in 0.0 W/m2 CLR
04:39 26.9 °F 21.6 °F 30.57 in NE 11.5 mph 11.5 mph 80 % 0.00 in 0.0 W/m2 CLR
04:44 27.0 °F 21.9 °F 30.57 in NE 12.0 mph 12.0 mph 81 % 0.00 in 0.0 W/m2 CLR
Compliments of Weather Underground - 1 mb